Bowerman Airport Hoquiam US
ICAO: KHQM
IATA: HQM
Category: Medium
Scheduled Services: No

Elevation: 18 ft
TransAlt. 18000 ft.

Airport Communications:
ASOS:135.775
SEATTLE CNTR:128.3
SEATTLE RDO:122.2
CTAF/UNICOM:122.7

KHQM Zoom In..

Runways:

(A) RW 06 length 5000 ft width 150 ft
---- / hdg 60

(B) RW 24 length 5000 ft width 150 ft
ILS 108.70 / hdg 240

Location; KHQM
Day. 22 / Time. 23.53 Zulu
* Altimeter: 30.28
* Temperature: 08° c. 46.4°f.
* Wind from: 210° Speed 06 kn.
Dewpoint: 06° c.
Visibility: 8 Statute Miles.
Clouds: Clear (automated report).

KHQM 222353Z AUTO 21006KT 8SM CLR 08/06 A3028 RMK AO2 SLP255 T00830056 10094 20078 55002


Wind From 210°
Speed 06 kn.

YouTube Music Video
 
jpsmedia.com for Web Design  worldairports.se 2018   terms of use